sensor_id;sensor_type;location;lat;lon;timestamp;P1;durP1;ratioP1;P2;durP2;ratioP2
70122;SDS011;57489;37.404;24.920;2022-12-18T00:02:26;5.20;;;1.75;;
70122;SDS011;57489;37.404;24.920;2022-12-18T00:07:26;6.68;;;1.98;;
70122;SDS011;57489;37.404;24.920;2022-12-18T00:12:26;9.18;;;1.98;;
70122;SDS011;57489;37.404;24.920;2022-12-18T00:17:26;5.78;;;1.98;;
70122;SDS011;57489;37.404;24.920;2022-12-18T00:22:27;8.93;;;2.17;;
70122;SDS011;57489;37.404;24.920;2022-12-18T00:27:27;6.88;;;1.75;;
70122;SDS011;57489;37.404;24.920;2022-12-18T00:32:27;7.10;;;1.95;;
70122;SDS011;57489;37.404;24.920;2022-12-18T00:37:27;8.18;;;2.63;;
70122;SDS011;57489;37.404;24.920;2022-12-18T00:42:28;7.22;;;2.50;;
70122;SDS011;57489;37.404;24.920;2022-12-18T00:47:28;7.20;;;2.00;;
70122;SDS011;57489;37.404;24.920;2022-12-18T00:52:28;5.30;;;2.20;;
70122;SDS011;57489;37.404;24.920;2022-12-18T00:57:28;7.13;;;2.22;;
70122;SDS011;57489;37.404;24.920;2022-12-18T01:02:29;7.13;;;2.17;;
70122;SDS011;57489;37.404;24.920;2022-12-18T01:07:29;4.68;;;2.00;;
70122;SDS011;57489;37.404;24.920;2022-12-18T01:12:29;7.95;;;2.08;;
70122;SDS011;57489;37.404;24.920;2022-12-18T01:17:29;5.68;;;2.38;;
70122;SDS011;57489;37.404;24.920;2022-12-18T01:22:29;4.93;;;1.90;;
70122;SDS011;57489;37.404;24.920;2022-12-18T01:27:30;7.95;;;2.47;;
70122;SDS011;57489;37.404;24.920;2022-12-18T01:32:31;9.40;;;2.17;;
70122;SDS011;57489;37.404;24.920;2022-12-18T01:37:31;7.70;;;2.70;;
70122;SDS011;57489;37.404;24.920;2022-12-18T01:42:31;7.35;;;2.05;;
70122;SDS011;57489;37.404;24.920;2022-12-18T01:47:39;8.88;;;2.67;;
70122;SDS011;57489;37.404;24.920;2022-12-18T01:52:42;12.02;;;2.58;;
70122;SDS011;57489;37.404;24.920;2022-12-18T01:57:43;9.00;;;2.28;;
70122;SDS011;57489;37.404;24.920;2022-12-18T02:02:44;5.00;;;1.83;;
70122;SDS011;57489;37.404;24.920;2022-12-18T02:07:55;6.17;;;1.90;;
70122;SDS011;57489;37.404;24.920;2022-12-18T02:13:11;11.90;;;2.42;;
70122;SDS011;57489;37.404;24.920;2022-12-18T02:18:14;6.50;;;2.15;;
70122;SDS011;57489;37.404;24.920;2022-12-18T02:28:16;8.75;;;2.30;;
70122;SDS011;57489;37.404;24.920;2022-12-18T02:33:17;11.65;;;2.20;;
70122;SDS011;57489;37.404;24.920;2022-12-18T02:38:19;9.77;;;2.73;;
70122;SDS011;57489;37.404;24.920;2022-12-18T02:43:19;6.00;;;2.40;;
70122;SDS011;57489;37.404;24.920;2022-12-18T02:48:21;7.60;;;2.00;;
70122;SDS011;57489;37.404;24.920;2022-12-18T02:53:57;7.05;;;2.28;;
70122;SDS011;57489;37.404;24.920;2022-12-18T03:03:55;10.07;;;2.17;;
70122;SDS011;57489;37.404;24.920;2022-12-18T03:08:59;8.07;;;2.28;;
70122;SDS011;57489;37.404;24.920;2022-12-18T03:14:02;7.32;;;2.75;;
70122;SDS011;57489;37.404;24.920;2022-12-18T03:19:08;8.23;;;2.40;;
70122;SDS011;57489;37.404;24.920;2022-12-18T03:24:09;7.40;;;2.35;;
70122;SDS011;57489;37.404;24.920;2022-12-18T03:29:13;8.50;;;2.65;;
70122;SDS011;57489;37.404;24.920;2022-12-18T03:34:21;7.97;;;2.20;;
70122;SDS011;57489;37.404;24.920;2022-12-18T03:39:21;8.20;;;2.75;;
70122;SDS011;57489;37.404;24.920;2022-12-18T03:44:42;11.35;;;2.55;;
70122;SDS011;57489;37.404;24.920;2022-12-18T03:54:44;10.47;;;2.70;;
70122;SDS011;57489;37.404;24.920;2022-12-18T03:59:45;7.32;;;2.50;;
70122;SDS011;57489;37.404;24.920;2022-12-18T04:04:47;8.87;;;2.10;;
70122;SDS011;57489;37.404;24.920;2022-12-18T04:09:48;8.95;;;2.10;;
70122;SDS011;57489;37.404;24.920;2022-12-18T04:14:48;7.60;;;2.37;;
70122;SDS011;57489;37.404;24.920;2022-12-18T04:19:49;9.38;;;2.40;;
70122;SDS011;57489;37.404;24.920;2022-12-18T04:24:49;6.73;;;2.13;;
70122;SDS011;57489;37.404;24.920;2022-12-18T04:29:49;9.60;;;2.53;;
70122;SDS011;57489;37.404;24.920;2022-12-18T04:34:49;9.40;;;2.28;;
70122;SDS011;57489;37.404;24.920;2022-12-18T04:39:50;6.95;;;2.33;;
70122;SDS011;57489;37.404;24.920;2022-12-18T04:44:50;11.10;;;2.50;;
70122;SDS011;57489;37.404;24.920;2022-12-18T04:49:50;8.07;;;2.15;;
70122;SDS011;57489;37.404;24.920;2022-12-18T04:54:50;11.37;;;2.30;;
70122;SDS011;57489;37.404;24.920;2022-12-18T04:59:51;7.77;;;2.07;;
70122;SDS011;57489;37.404;24.920;2022-12-18T05:04:52;7.60;;;2.15;;
70122;SDS011;57489;37.404;24.920;2022-12-18T05:09:52;9.55;;;2.30;;
70122;SDS011;57489;37.404;24.920;2022-12-18T05:14:52;6.75;;;2.30;;
70122;SDS011;57489;37.404;24.920;2022-12-18T05:19:52;7.18;;;2.45;;
70122;SDS011;57489;37.404;24.920;2022-12-18T05:24:53;5.25;;;2.40;;
70122;SDS011;57489;37.404;24.920;2022-12-18T05:29:53;6.23;;;2.10;;
70122;SDS011;57489;37.404;24.920;2022-12-18T05:34:53;8.53;;;2.57;;
70122;SDS011;57489;37.404;24.920;2022-12-18T05:39:53;6.18;;;2.17;;
70122;SDS011;57489;37.404;24.920;2022-12-18T05:44:54;7.03;;;2.25;;
70122;SDS011;57489;37.404;24.920;2022-12-18T05:49:54;7.88;;;2.25;;
70122;SDS011;57489;37.404;24.920;2022-12-18T05:54:54;7.55;;;2.88;;
70122;SDS011;57489;37.404;24.920;2022-12-18T05:59:54;6.90;;;2.40;;
70122;SDS011;57489;37.404;24.920;2022-12-18T06:04:54;6.95;;;2.67;;
70122;SDS011;57489;37.404;24.920;2022-12-18T06:09:55;7.25;;;2.83;;
70122;SDS011;57489;37.404;24.920;2022-12-18T06:14:55;7.05;;;2.05;;
70122;SDS011;57489;37.404;24.920;2022-12-18T06:19:55;5.37;;;2.20;;
70122;SDS011;57489;37.404;24.920;2022-12-18T06:24:55;4.57;;;2.30;;
70122;SDS011;57489;37.404;24.920;2022-12-18T06:29:56;7.15;;;2.30;;
70122;SDS011;57489;37.404;24.920;2022-12-18T06:34:56;5.20;;;2.38;;
70122;SDS011;57489;37.404;24.920;2022-12-18T06:39:56;5.15;;;2.00;;
70122;SDS011;57489;37.404;24.920;2022-12-18T06:44:56;7.00;;;2.22;;
70122;SDS011;57489;37.404;24.920;2022-12-18T06:49:56;9.75;;;2.85;;
70122;SDS011;57489;37.404;24.920;2022-12-18T06:54:57;7.78;;;2.45;;
70122;SDS011;57489;37.404;24.920;2022-12-18T06:59:57;6.93;;;2.65;;
70122;SDS011;57489;37.404;24.920;2022-12-18T07:04:57;4.97;;;1.80;;
70122;SDS011;57489;37.404;24.920;2022-12-18T07:09:58;6.90;;;2.40;;
70122;SDS011;57489;37.404;24.920;2022-12-18T07:14:58;5.82;;;2.05;;
70122;SDS011;57489;37.404;24.920;2022-12-18T07:19:58;5.70;;;2.40;;
70122;SDS011;57489;37.404;24.920;2022-12-18T07:24:58;5.33;;;1.90;;
70122;SDS011;57489;37.404;24.920;2022-12-18T07:29:59;6.65;;;2.35;;
70122;SDS011;57489;37.404;24.920;2022-12-18T07:34:59;3.45;;;1.70;;
70122;SDS011;57489;37.404;24.920;2022-12-18T07:39:59;5.65;;;1.77;;
70122;SDS011;57489;37.404;24.920;2022-12-18T07:45:00;8.20;;;2.17;;
70122;SDS011;57489;37.404;24.920;2022-12-18T07:50:00;5.45;;;2.00;;
70122;SDS011;57489;37.404;24.920;2022-12-18T07:55:01;6.00;;;1.60;;
70122;SDS011;57489;37.404;24.920;2022-12-18T08:00:02;5.77;;;2.00;;
70122;SDS011;57489;37.404;24.920;2022-12-18T08:05:02;6.23;;;2.10;;
70122;SDS011;57489;37.404;24.920;2022-12-18T08:10:03;6.43;;;2.10;;
70122;SDS011;57489;37.404;24.920;2022-12-18T08:15:03;8.93;;;2.27;;
70122;SDS011;57489;37.404;24.920;2022-12-18T08:20:03;4.87;;;2.20;;
70122;SDS011;57489;37.404;24.920;2022-12-18T08:25:04;8.33;;;2.13;;
70122;SDS011;57489;37.404;24.920;2022-12-18T08:30:04;5.80;;;2.10;;
70122;SDS011;57489;37.404;24.920;2022-12-18T08:35:05;7.37;;;2.30;;
70122;SDS011;57489;37.404;24.920;2022-12-18T08:40:06;11.13;;;2.50;;
70122;SDS011;57489;37.404;24.920;2022-12-18T08:45:06;11.63;;;2.87;;
70122;SDS011;57489;37.404;24.920;2022-12-18T08:50:07;12.88;;;2.70;;
70122;SDS011;57489;37.404;24.920;2022-12-18T08:55:07;11.63;;;2.83;;
70122;SDS011;57489;37.404;24.920;2022-12-18T09:00:08;14.17;;;4.07;;
70122;SDS011;57489;37.404;24.920;2022-12-18T09:05:08;14.23;;;4.47;;
70122;SDS011;57489;37.404;24.920;2022-12-18T09:10:09;15.40;;;3.95;;
70122;SDS011;57489;37.404;24.920;2022-12-18T09:15:09;13.77;;;3.90;;
70122;SDS011;57489;37.404;24.920;2022-12-18T09:20:09;11.93;;;2.77;;
70122;SDS011;57489;37.404;24.920;2022-12-18T09:25:10;9.77;;;2.90;;
70122;SDS011;57489;37.404;24.920;2022-12-18T09:30:10;10.05;;;3.42;;
70122;SDS011;57489;37.404;24.920;2022-12-18T09:35:10;12.20;;;3.72;;
70122;SDS011;57489;37.404;24.920;2022-12-18T09:40:14;10.13;;;3.10;;
70122;SDS011;57489;37.404;24.920;2022-12-18T09:45:16;13.53;;;2.70;;
70122;SDS011;57489;37.404;24.920;2022-12-18T09:50:20;12.85;;;2.80;;
70122;SDS011;57489;37.404;24.920;2022-12-18T09:55:36;13.60;;;2.70;;
70122;SDS011;57489;37.404;24.920;2022-12-18T10:00:37;12.82;;;2.70;;
70122;SDS011;57489;37.404;24.920;2022-12-18T10:10:57;12.25;;;3.03;;
70122;SDS011;57489;37.404;24.920;2022-12-18T10:16:17;9.47;;;2.73;;
70122;SDS011;57489;37.404;24.920;2022-12-18T10:21:21;9.93;;;2.20;;
70122;SDS011;57489;37.404;24.920;2022-12-18T10:26:23;11.95;;;3.03;;
70122;SDS011;57489;37.404;24.920;2022-12-18T10:31:24;13.90;;;3.15;;
70122;SDS011;57489;37.404;24.920;2022-12-18T10:36:24;10.37;;;2.73;;
70122;SDS011;57489;37.404;24.920;2022-12-18T10:41:25;9.30;;;2.77;;
70122;SDS011;57489;37.404;24.920;2022-12-18T10:46:26;10.02;;;2.92;;
70122;SDS011;57489;37.404;24.920;2022-12-18T10:56:27;14.37;;;3.60;;
70122;SDS011;57489;37.404;24.920;2022-12-18T11:01:28;15.82;;;3.38;;
70122;SDS011;57489;37.404;24.920;2022-12-18T11:06:30;12.02;;;3.42;;
70122;SDS011;57489;37.404;24.920;2022-12-18T11:11:31;10.93;;;4.20;;
70122;SDS011;57489;37.404;24.920;2022-12-18T11:16:50;11.73;;;3.53;;
70122;SDS011;57489;37.404;24.920;2022-12-18T11:21:51;11.50;;;2.85;;
70122;SDS011;57489;37.404;24.920;2022-12-18T11:26:51;11.00;;;2.67;;
70122;SDS011;57489;37.404;24.920;2022-12-18T11:31:51;9.67;;;2.47;;
70122;SDS011;57489;37.404;24.920;2022-12-18T11:37:08;7.05;;;2.17;;
70122;SDS011;57489;37.404;24.920;2022-12-18T11:42:12;12.70;;;2.77;;
70122;SDS011;57489;37.404;24.920;2022-12-18T11:52:27;10.13;;;2.28;;
70122;SDS011;57489;37.404;24.920;2022-12-18T11:57:34;11.50;;;3.07;;
70122;SDS011;57489;37.404;24.920;2022-12-18T12:07:52;8.20;;;2.80;;
70122;SDS011;57489;37.404;24.920;2022-12-18T12:13:04;10.27;;;2.70;;
70122;SDS011;57489;37.404;24.920;2022-12-18T12:23:22;10.70;;;2.58;;
70122;SDS011;57489;37.404;24.920;2022-12-18T12:38:34;11.17;;;2.40;;
70122;SDS011;57489;37.404;24.920;2022-12-18T12:43:42;11.00;;;2.00;;
70122;SDS011;57489;37.404;24.920;2022-12-18T12:48:50;14.90;;;2.00;;
70122;SDS011;57489;37.404;24.920;2022-12-18T12:53:52;10.50;;;1.93;;
70122;SDS011;57489;37.404;24.920;2022-12-18T12:59:16;14.27;;;1.88;;
70122;SDS011;57489;37.404;24.920;2022-12-18T13:04:23;8.15;;;2.03;;
70122;SDS011;57489;37.404;24.920;2022-12-18T13:09:23;10.33;;;1.83;;
70122;SDS011;57489;37.404;24.920;2022-12-18T13:19:30;12.27;;;2.10;;
70122;SDS011;57489;37.404;24.920;2022-12-18T13:24:30;7.05;;;2.20;;
70122;SDS011;57489;37.404;24.920;2022-12-18T13:29:40;8.27;;;1.90;;
70122;SDS011;57489;37.404;24.920;2022-12-18T13:34:41;8.93;;;1.60;;
70122;SDS011;57489;37.404;24.920;2022-12-18T13:39:41;12.57;;;2.05;;
70122;SDS011;57489;37.404;24.920;2022-12-18T13:44:41;10.07;;;2.38;;
70122;SDS011;57489;37.404;24.920;2022-12-18T13:49:43;11.75;;;2.38;;
70122;SDS011;57489;37.404;24.920;2022-12-18T13:54:45;12.63;;;2.10;;
70122;SDS011;57489;37.404;24.920;2022-12-18T13:59:47;8.98;;;1.83;;
70122;SDS011;57489;37.404;24.920;2022-12-18T14:04:47;6.22;;;1.58;;
70122;SDS011;57489;37.404;24.920;2022-12-18T14:09:55;5.53;;;1.67;;
70122;SDS011;57489;37.404;24.920;2022-12-18T14:14:55;10.60;;;1.80;;
70122;SDS011;57489;37.404;24.920;2022-12-18T14:19:55;11.85;;;2.08;;
70122;SDS011;57489;37.404;24.920;2022-12-18T14:25:13;10.73;;;2.53;;
70122;SDS011;57489;37.404;24.920;2022-12-18T14:30:36;9.57;;;2.72;;
70122;SDS011;57489;37.404;24.920;2022-12-18T14:35:35;11.80;;;2.17;;
70122;SDS011;57489;37.404;24.920;2022-12-18T14:40:36;9.70;;;2.90;;
70122;SDS011;57489;37.404;24.920;2022-12-18T14:45:37;8.77;;;2.23;;
70122;SDS011;57489;37.404;24.920;2022-12-18T14:50:37;8.20;;;2.33;;
70122;SDS011;57489;37.404;24.920;2022-12-18T14:55:38;6.73;;;2.20;;
70122;SDS011;57489;37.404;24.920;2022-12-18T15:00:38;14.85;;;3.53;;
70122;SDS011;57489;37.404;24.920;2022-12-18T15:05:41;9.43;;;2.90;;
70122;SDS011;57489;37.404;24.920;2022-12-18T15:10:46;7.68;;;3.10;;
70122;SDS011;57489;37.404;24.920;2022-12-18T15:15:47;8.57;;;3.88;;
70122;SDS011;57489;37.404;24.920;2022-12-18T15:20:49;10.15;;;2.97;;
70122;SDS011;57489;37.404;24.920;2022-12-18T15:25:56;13.50;;;3.50;;
70122;SDS011;57489;37.404;24.920;2022-12-18T15:31:04;11.40;;;3.17;;
70122;SDS011;57489;37.404;24.920;2022-12-18T15:36:08;11.40;;;4.00;;
70122;SDS011;57489;37.404;24.920;2022-12-18T15:41:11;10.63;;;4.27;;
70122;SDS011;57489;37.404;24.920;2022-12-18T15:46:14;9.55;;;3.38;;
70122;SDS011;57489;37.404;24.920;2022-12-18T15:51:16;10.32;;;3.65;;
70122;SDS011;57489;37.404;24.920;2022-12-18T15:56:16;9.27;;;2.80;;
70122;SDS011;57489;37.404;24.920;2022-12-18T16:01:17;9.38;;;3.33;;
70122;SDS011;57489;37.404;24.920;2022-12-18T16:06:17;11.43;;;3.83;;
70122;SDS011;57489;37.404;24.920;2022-12-18T16:11:24;8.80;;;3.65;;
70122;SDS011;57489;37.404;24.920;2022-12-18T16:16:25;10.80;;;3.67;;
70122;SDS011;57489;37.404;24.920;2022-12-18T16:21:25;9.17;;;3.57;;
70122;SDS011;57489;37.404;24.920;2022-12-18T16:26:26;11.27;;;3.88;;
70122;SDS011;57489;37.404;24.920;2022-12-18T16:31:26;7.78;;;2.97;;
70122;SDS011;57489;37.404;24.920;2022-12-18T16:36:26;8.23;;;3.17;;
70122;SDS011;57489;37.404;24.920;2022-12-18T16:41:26;8.68;;;3.15;;
70122;SDS011;57489;37.404;24.920;2022-12-18T16:46:28;9.80;;;3.72;;
70122;SDS011;57489;37.404;24.920;2022-12-18T16:51:29;12.87;;;3.93;;
70122;SDS011;57489;37.404;24.920;2022-12-18T16:56:29;8.53;;;3.10;;
70122;SDS011;57489;37.404;24.920;2022-12-18T17:01:30;9.13;;;3.20;;
70122;SDS011;57489;37.404;24.920;2022-12-18T17:06:32;13.55;;;3.55;;
70122;SDS011;57489;37.404;24.920;2022-12-18T17:11:33;9.53;;;3.53;;
70122;SDS011;57489;37.404;24.920;2022-12-18T17:16:33;11.65;;;3.42;;
70122;SDS011;57489;37.404;24.920;2022-12-18T17:21:33;9.90;;;3.70;;
70122;SDS011;57489;37.404;24.920;2022-12-18T17:26:34;7.82;;;2.95;;
70122;SDS011;57489;37.404;24.920;2022-12-18T17:31:34;9.20;;;3.80;;
70122;SDS011;57489;37.404;24.920;2022-12-18T17:36:34;12.00;;;4.10;;
70122;SDS011;57489;37.404;24.920;2022-12-18T17:41:34;7.45;;;3.20;;
70122;SDS011;57489;37.404;24.920;2022-12-18T17:46:35;8.60;;;3.67;;
70122;SDS011;57489;37.404;24.920;2022-12-18T17:51:35;15.63;;;3.50;;
70122;SDS011;57489;37.404;24.920;2022-12-18T17:56:35;8.25;;;3.78;;
70122;SDS011;57489;37.404;24.920;2022-12-18T18:01:35;10.63;;;3.65;;
70122;SDS011;57489;37.404;24.920;2022-12-18T18:06:36;9.95;;;3.53;;
70122;SDS011;57489;37.404;24.920;2022-12-18T18:11:36;9.32;;;3.35;;
70122;SDS011;57489;37.404;24.920;2022-12-18T18:16:40;11.32;;;3.67;;
70122;SDS011;57489;37.404;24.920;2022-12-18T18:21:42;9.25;;;3.22;;
70122;SDS011;57489;37.404;24.920;2022-12-18T18:26:42;9.53;;;3.40;;
70122;SDS011;57489;37.404;24.920;2022-12-18T18:31:43;8.23;;;3.47;;
70122;SDS011;57489;37.404;24.920;2022-12-18T18:36:43;12.20;;;3.47;;
70122;SDS011;57489;37.404;24.920;2022-12-18T18:41:44;9.60;;;3.97;;
70122;SDS011;57489;37.404;24.920;2022-12-18T18:46:45;8.53;;;3.23;;
70122;SDS011;57489;37.404;24.920;2022-12-18T18:51:45;11.00;;;3.63;;
70122;SDS011;57489;37.404;24.920;2022-12-18T18:56:47;19.63;;;3.78;;
70122;SDS011;57489;37.404;24.920;2022-12-18T19:01:47;7.95;;;3.13;;
70122;SDS011;57489;37.404;24.920;2022-12-18T19:06:47;8.20;;;3.90;;
70122;SDS011;57489;37.404;24.920;2022-12-18T19:11:48;15.63;;;3.28;;
70122;SDS011;57489;37.404;24.920;2022-12-18T19:16:48;9.10;;;3.50;;
70122;SDS011;57489;37.404;24.920;2022-12-18T19:21:48;12.50;;;3.77;;
70122;SDS011;57489;37.404;24.920;2022-12-18T19:26:48;9.70;;;3.47;;
70122;SDS011;57489;37.404;24.920;2022-12-18T19:31:48;9.48;;;3.30;;
70122;SDS011;57489;37.404;24.920;2022-12-18T19:36:49;9.05;;;3.83;;
70122;SDS011;57489;37.404;24.920;2022-12-18T19:41:49;8.23;;;3.70;;
70122;SDS011;57489;37.404;24.920;2022-12-18T19:46:49;10.40;;;3.75;;
70122;SDS011;57489;37.404;24.920;2022-12-18T19:51:49;11.65;;;3.70;;
70122;SDS011;57489;37.404;24.920;2022-12-18T19:56:50;10.30;;;4.28;;
70122;SDS011;57489;37.404;24.920;2022-12-18T20:01:50;10.55;;;3.42;;
70122;SDS011;57489;37.404;24.920;2022-12-18T20:06:51;11.73;;;3.72;;
70122;SDS011;57489;37.404;24.920;2022-12-18T20:11:51;10.87;;;3.80;;
70122;SDS011;57489;37.404;24.920;2022-12-18T20:16:52;10.65;;;4.15;;
70122;SDS011;57489;37.404;24.920;2022-12-18T20:21:52;8.95;;;3.25;;
70122;SDS011;57489;37.404;24.920;2022-12-18T20:26:52;14.77;;;3.90;;
70122;SDS011;57489;37.404;24.920;2022-12-18T20:31:53;8.13;;;3.37;;
70122;SDS011;57489;37.404;24.920;2022-12-18T20:36:53;12.32;;;3.50;;
70122;SDS011;57489;37.404;24.920;2022-12-18T20:41:53;13.63;;;3.72;;
70122;SDS011;57489;37.404;24.920;2022-12-18T20:46:54;7.82;;;3.33;;
70122;SDS011;57489;37.404;24.920;2022-12-18T20:51:55;10.13;;;3.85;;
70122;SDS011;57489;37.404;24.920;2022-12-18T20:56:56;11.27;;;3.60;;
70122;SDS011;57489;37.404;24.920;2022-12-18T21:01:56;10.93;;;3.23;;
70122;SDS011;57489;37.404;24.920;2022-12-18T21:06:56;11.70;;;4.28;;
70122;SDS011;57489;37.404;24.920;2022-12-18T21:11:57;7.15;;;3.22;;
70122;SDS011;57489;37.404;24.920;2022-12-18T21:16:57;10.20;;;3.90;;
70122;SDS011;57489;37.404;24.920;2022-12-18T21:21:57;11.37;;;3.93;;
70122;SDS011;57489;37.404;24.920;2022-12-18T21:26:58;13.20;;;3.75;;
70122;SDS011;57489;37.404;24.920;2022-12-18T21:31:59;8.65;;;3.20;;
70122;SDS011;57489;37.404;24.920;2022-12-18T21:36:59;10.07;;;3.50;;
70122;SDS011;57489;37.404;24.920;2022-12-18T21:42:00;8.63;;;3.43;;
70122;SDS011;57489;37.404;24.920;2022-12-18T21:47:00;8.40;;;3.38;;
70122;SDS011;57489;37.404;24.920;2022-12-18T21:52:00;12.32;;;3.72;;
70122;SDS011;57489;37.404;24.920;2022-12-18T21:57:02;9.63;;;3.80;;
70122;SDS011;57489;37.404;24.920;2022-12-18T22:02:03;10.77;;;3.33;;
70122;SDS011;57489;37.404;24.920;2022-12-18T22:07:04;9.40;;;3.53;;
70122;SDS011;57489;37.404;24.920;2022-12-18T22:12:04;12.00;;;4.68;;
70122;SDS011;57489;37.404;24.920;2022-12-18T22:17:05;12.93;;;5.22;;
70122;SDS011;57489;37.404;24.920;2022-12-18T22:22:05;18.90;;;4.73;;
70122;SDS011;57489;37.404;24.920;2022-12-18T22:27:05;12.47;;;4.40;;
70122;SDS011;57489;37.404;24.920;2022-12-18T22:32:06;15.80;;;5.85;;
70122;SDS011;57489;37.404;24.920;2022-12-18T22:37:08;15.65;;;5.18;;
70122;SDS011;57489;37.404;24.920;2022-12-18T22:42:08;13.45;;;5.40;;
70122;SDS011;57489;37.404;24.920;2022-12-18T22:47:09;18.27;;;5.70;;
70122;SDS011;57489;37.404;24.920;2022-12-18T22:52:09;20.97;;;5.77;;
70122;SDS011;57489;37.404;24.920;2022-12-18T22:57:10;17.33;;;5.67;;
70122;SDS011;57489;37.404;24.920;2022-12-18T23:02:10;21.23;;;5.25;;
70122;SDS011;57489;37.404;24.920;2022-12-18T23:07:10;20.40;;;6.43;;
70122;SDS011;57489;37.404;24.920;2022-12-18T23:12:13;21.08;;;5.55;;
70122;SDS011;57489;37.404;24.920;2022-12-18T23:17:14;14.20;;;5.03;;
70122;SDS011;57489;37.404;24.920;2022-12-18T23:22:15;18.33;;;6.23;;
70122;SDS011;57489;37.404;24.920;2022-12-18T23:27:15;14.70;;;5.30;;
70122;SDS011;57489;37.404;24.920;2022-12-18T23:32:15;16.55;;;5.30;;
70122;SDS011;57489;37.404;24.920;2022-12-18T23:37:16;13.50;;;5.10;;
70122;SDS011;57489;37.404;24.920;2022-12-18T23:42:16;16.17;;;5.60;;
70122;SDS011;57489;37.404;24.920;2022-12-18T23:47:16;14.82;;;4.95;;
70122;SDS011;57489;37.404;24.920;2022-12-18T23:52:16;19.67;;;5.50;;
70122;SDS011;57489;37.404;24.920;2022-12-18T23:57:16;13.02;;;4.88;;
